SWA2795 KSLC-KLAS
Flight info
| Callsign | SWA2795 |
|---|---|
| Flight time | 1h 1m |
| Altitude | 32000 |
| Route | ARCHZ1 MLF STEWW CHOWW4 |
| Aircraft | B738/M-SDE2E3FGHIRWXY/LB1 |
Departure
| Time | 2026-05-04 03:22 |
|---|---|
| Airport | Salt Lake City International Airport (KSLC) |
Arrival
| Time | 2026-05-04 04:23 |
|---|---|
| Airport | Harry Reid International Airport (KLAS) |
| Time | Latitude | Longitude | Altitude | Speed | Heading |
|---|---|---|---|---|---|
| 2026-05-04 02:53 | 40.78822 | -111.98832 | 4230 ft | 0 kts | 355° |
| 2026-05-04 03:02 | 40.78806 | -111.98830 | 4234 ft | 4 kts | 355° |
| 2026-05-04 03:03 | 40.78779 | -111.98830 | 4229 ft | 4 kts | 15° |
| 2026-05-04 03:03 | 40.78757 | -111.98845 | 4229 ft | 4 kts | 53° |
| 2026-05-04 03:03 | 40.78749 | -111.98868 | 4230 ft | 1 kts | 84° |
| 2026-05-04 03:03 | 40.78749 | -111.98872 | 4230 ft | 0 kts | 84° |
| 2026-05-04 03:05 | 40.78749 | -111.98869 | 4230 ft | 1 kts | 84° |
| 2026-05-04 03:05 | 40.78751 | -111.98844 | 4230 ft | 4 kts | 84° |
| 2026-05-04 03:06 | 40.78755 | -111.98790 | 4228 ft | 7 kts | 84° |
| 2026-05-04 03:06 | 40.78761 | -111.98710 | 4230 ft | 10 kts | 84° |
| 2026-05-04 03:06 | 40.78768 | -111.98610 | 4230 ft | 11 kts | 84° |
| 2026-05-04 03:06 | 40.78775 | -111.98518 | 4230 ft | 8 kts | 84° |
| 2026-05-04 03:07 | 40.78781 | -111.98444 | 4230 ft | 8 kts | 84° |
| 2026-05-04 03:07 | 40.78786 | -111.98373 | 4229 ft | 8 kts | 84° |
| 2026-05-04 03:07 | 40.78791 | -111.98303 | 4230 ft | 7 kts | 86° |
| 2026-05-04 03:07 | 40.78795 | -111.98236 | 4230 ft | 7 kts | 86° |
| 2026-05-04 03:08 | 40.78799 | -111.98171 | 4230 ft | 7 kts | 84° |
| 2026-05-04 03:08 | 40.78804 | -111.98108 | 4230 ft | 7 kts | 84° |
| 2026-05-04 03:08 | 40.78809 | -111.98046 | 4230 ft | 7 kts | 84° |
| 2026-05-04 03:08 | 40.78814 | -111.97985 | 4228 ft | 7 kts | 84° |
| 2026-05-04 03:09 | 40.78818 | -111.97925 | 4230 ft | 6 kts | 84° |
| 2026-05-04 03:09 | 40.78821 | -111.97882 | 4230 ft | 0 kts | 85° |
| 2026-05-04 03:10 | 40.78822 | -111.97876 | 4230 ft | 2 kts | 85° |
| 2026-05-04 03:10 | 40.78824 | -111.97827 | 4230 ft | 6 kts | 85° |
| 2026-05-04 03:10 | 40.78828 | -111.97772 | 4229 ft | 7 kts | 84° |
| 2026-05-04 03:10 | 40.78802 | -111.97697 | 4230 ft | 14 kts | 154° |
| 2026-05-04 03:11 | 40.78685 | -111.97674 | 4230 ft | 17 kts | 175° |
| 2026-05-04 03:11 | 40.78570 | -111.97660 | 4230 ft | 16 kts | 175° |
| 2026-05-04 03:11 | 40.78458 | -111.97647 | 4230 ft | 16 kts | 175° |
| 2026-05-04 03:11 | 40.78351 | -111.97634 | 4230 ft | 15 kts | 175° |
| 2026-05-04 03:12 | 40.78248 | -111.97623 | 4230 ft | 15 kts | 175° |
| 2026-05-04 03:12 | 40.78150 | -111.97612 | 4230 ft | 14 kts | 175° |
| 2026-05-04 03:12 | 40.78055 | -111.97600 | 4243 ft | 13 kts | 175° |
| 2026-05-04 03:12 | 40.77965 | -111.97589 | 4249 ft | 13 kts | 173° |
| 2026-05-04 03:13 | 40.77884 | -111.97545 | 4248 ft | 13 kts | 156° |
| 2026-05-04 03:13 | 40.77801 | -111.97522 | 4249 ft | 12 kts | 175° |
| 2026-05-04 03:13 | 40.77717 | -111.97512 | 4249 ft | 12 kts | 174° |
| 2026-05-04 03:13 | 40.77636 | -111.97502 | 4249 ft | 12 kts | 174° |
| 2026-05-04 03:14 | 40.77557 | -111.97492 | 4249 ft | 11 kts | 174° |
| 2026-05-04 03:14 | 40.77495 | -111.97484 | 4249 ft | 1 kts | 174° |
| 2026-05-04 03:14 | 40.77486 | -111.97483 | 4249 ft | 1 kts | 174° |
| 2026-05-04 03:14 | 40.77477 | -111.97481 | 4249 ft | 1 kts | 172° |
| 2026-05-04 03:15 | 40.77471 | -111.97479 | 4249 ft | 0 kts | 161° |
| 2026-05-04 03:17 | 40.77470 | -111.97478 | 4249 ft | 1 kts | 160° |
| 2026-05-04 03:17 | 40.77451 | -111.97451 | 4250 ft | 8 kts | 112° |
| 2026-05-04 03:17 | 40.77473 | -111.97372 | 4249 ft | 10 kts | 48° |
| 2026-05-04 03:17 | 40.77532 | -111.97326 | 4249 ft | 10 kts | 7° |
| 2026-05-04 03:18 | 40.77568 | -111.97327 | 4249 ft | 0 kts | 356° |
| 2026-05-04 03:21 | 40.77570 | -111.97327 | 4249 ft | 2 kts | 356° |
| 2026-05-04 03:21 | 40.77844 | -111.97360 | 4249 ft | 82 kts | 354° |
| 2026-05-04 03:21 | 40.78625 | -111.97451 | 4231 ft | 152 kts | 355° |
| 2026-05-04 03:21 | 40.79815 | -111.97587 | 4662 ft | 185 kts | 355° |
| 2026-05-04 03:22 | 40.81076 | -111.97788 | 5673 ft | 187 kts | 352° |
| 2026-05-04 03:22 | 40.82356 | -111.98075 | 6689 ft | 194 kts | 340° |
| 2026-05-04 03:22 | 40.83508 | -111.99170 | 6932 ft | 221 kts | 307° |
| 2026-05-04 03:22 | 40.84079 | -112.01148 | 7102 ft | 245 kts | 277° |
| 2026-05-04 03:23 | 40.84169 | -112.03484 | 7388 ft | 261 kts | 271° |
| 2026-05-04 03:23 | 40.84210 | -112.05909 | 7981 ft | 267 kts | 271° |
| 2026-05-04 03:23 | 40.84248 | -112.08358 | 8772 ft | 266 kts | 271° |
| 2026-05-04 03:23 | 40.83996 | -112.10755 | 9522 ft | 267 kts | 245° |
| 2026-05-04 03:24 | 40.82941 | -112.12826 | 10046 ft | 283 kts | 232° |
| 2026-05-04 03:24 | 40.81684 | -112.14977 | 10306 ft | 310 kts | 232° |
| 2026-05-04 03:24 | 40.80359 | -112.17381 | 10524 ft | 337 kts | 234° |
| 2026-05-04 03:24 | 40.79012 | -112.19993 | 11082 ft | 348 kts | 236° |
| 2026-05-04 03:25 | 40.77669 | -112.22681 | 11853 ft | 353 kts | 236° |
| 2026-05-04 03:25 | 40.76240 | -112.25319 | 12726 ft | 354 kts | 226° |
| 2026-05-04 03:25 | 40.74264 | -112.27233 | 13612 ft | 355 kts | 205° |
| 2026-05-04 03:25 | 40.71908 | -112.28178 | 14412 ft | 357 kts | 189° |
| 2026-05-04 03:26 | 40.69435 | -112.28661 | 15133 ft | 362 kts | 188° |
| 2026-05-04 03:26 | 40.66921 | -112.29112 | 15835 ft | 367 kts | 188° |
| 2026-05-04 03:26 | 40.64369 | -112.29585 | 16529 ft | 372 kts | 189° |
| 2026-05-04 03:26 | 40.61794 | -112.30089 | 17247 ft | 376 kts | 189° |
| 2026-05-04 03:27 | 40.59194 | -112.30615 | 17956 ft | 381 kts | 190° |
| 2026-05-04 03:27 | 40.56596 | -112.31161 | 18584 ft | 385 kts | 192° |
| 2026-05-04 03:27 | 40.53999 | -112.32027 | 19227 ft | 386 kts | 198° |
| 2026-05-04 03:27 | 40.51429 | -112.33086 | 19893 ft | 388 kts | 199° |
| 2026-05-04 03:28 | 40.48817 | -112.34203 | 20541 ft | 391 kts | 199° |
| 2026-05-04 03:28 | 40.46254 | -112.35295 | 21144 ft | 394 kts | 199° |
| 2026-05-04 03:28 | 40.43633 | -112.36397 | 21754 ft | 397 kts | 199° |
| 2026-05-04 03:28 | 40.40988 | -112.37493 | 22348 ft | 400 kts | 199° |
| 2026-05-04 03:29 | 40.38321 | -112.38588 | 22843 ft | 404 kts | 199° |
| 2026-05-04 03:29 | 40.35643 | -112.39682 | 22919 ft | 406 kts | 199° |
| 2026-05-04 03:29 | 40.32916 | -112.40793 | 23289 ft | 412 kts | 198° |
| 2026-05-04 03:29 | 40.30174 | -112.41908 | 23860 ft | 412 kts | 198° |
| 2026-05-04 03:30 | 40.27438 | -112.43019 | 24475 ft | 411 kts | 198° |
| 2026-05-04 03:30 | 40.24710 | -112.44128 | 25011 ft | 411 kts | 198° |
| 2026-05-04 03:30 | 40.21968 | -112.45241 | 25491 ft | 414 kts | 198° |
| 2026-05-04 03:30 | 40.19216 | -112.46367 | 25961 ft | 415 kts | 199° |
| 2026-05-04 03:31 | 40.16559 | -112.47824 | 26552 ft | 413 kts | 208° |
| 2026-05-04 03:31 | 40.14055 | -112.49594 | 27375 ft | 405 kts | 208° |
| 2026-05-04 03:31 | 40.11604 | -112.51356 | 28181 ft | 400 kts | 208° |
| 2026-05-04 03:31 | 40.09167 | -112.53105 | 28785 ft | 399 kts | 208° |
| 2026-05-04 03:32 | 40.06733 | -112.54841 | 29327 ft | 399 kts | 208° |
| 2026-05-04 03:32 | 40.04303 | -112.56564 | 29928 ft | 397 kts | 208° |
| 2026-05-04 03:32 | 40.01876 | -112.58276 | 30444 ft | 395 kts | 208° |
| 2026-05-04 03:32 | 39.99457 | -112.59975 | 30879 ft | 395 kts | 208° |
| 2026-05-04 03:33 | 39.97040 | -112.61670 | 31286 ft | 395 kts | 208° |
| 2026-05-04 03:33 | 39.94618 | -112.63366 | 31639 ft | 395 kts | 208° |
| 2026-05-04 03:33 | 39.92184 | -112.65069 | 31786 ft | 399 kts | 208° |
| 2026-05-04 03:34 | 39.87353 | -112.68446 | 31787 ft | 389 kts | 208° |
| 2026-05-04 03:34 | 39.82594 | -112.71768 | 31796 ft | 389 kts | 208° |
| 2026-05-04 03:35 | 39.77810 | -112.75103 | 31783 ft | 391 kts | 208° |
| 2026-05-04 03:35 | 39.72952 | -112.78485 | 31815 ft | 404 kts | 208° |
| 2026-05-04 03:36 | 39.67787 | -112.81601 | 31779 ft | 421 kts | 198° |
| 2026-05-04 03:36 | 39.61925 | -112.82955 | 31791 ft | 436 kts | 188° |
| 2026-05-04 03:37 | 39.55836 | -112.83787 | 31790 ft | 441 kts | 188° |
| 2026-05-04 03:37 | 39.49750 | -112.84647 | 31796 ft | 439 kts | 188° |
| 2026-05-04 03:38 | 39.43683 | -112.85542 | 31800 ft | 438 kts | 189° |
| 2026-05-04 03:38 | 39.37641 | -112.86447 | 31798 ft | 437 kts | 189° |
| 2026-05-04 03:39 | 39.31608 | -112.87342 | 31752 ft | 436 kts | 189° |
| 2026-05-04 03:39 | 39.25598 | -112.88231 | 31748 ft | 429 kts | 189° |
| 2026-05-04 03:40 | 39.19776 | -112.89090 | 31744 ft | 417 kts | 189° |
| 2026-05-04 03:40 | 39.14003 | -112.89943 | 31762 ft | 418 kts | 189° |
| 2026-05-04 03:41 | 39.08207 | -112.90796 | 31759 ft | 420 kts | 189° |
| 2026-05-04 03:41 | 39.02401 | -112.91648 | 31752 ft | 420 kts | 190° |
| 2026-05-04 03:42 | 38.96578 | -112.92503 | 31748 ft | 422 kts | 190° |
| 2026-05-04 03:42 | 38.90741 | -112.93358 | 31762 ft | 422 kts | 190° |
| 2026-05-04 03:43 | 38.84946 | -112.94204 | 31778 ft | 422 kts | 190° |
| 2026-05-04 03:43 | 38.79107 | -112.95055 | 31764 ft | 422 kts | 191° |
| 2026-05-04 03:44 | 38.73278 | -112.95905 | 31786 ft | 422 kts | 191° |
| 2026-05-04 03:44 | 38.67443 | -112.96753 | 31785 ft | 421 kts | 191° |
| 2026-05-04 03:45 | 38.61626 | -112.97597 | 31887 ft | 420 kts | 191° |
| 2026-05-04 03:45 | 38.55814 | -112.98439 | 31905 ft | 420 kts | 191° |
| 2026-05-04 03:46 | 38.50006 | -112.99280 | 31944 ft | 420 kts | 191° |
| 2026-05-04 03:46 | 38.44187 | -113.00120 | 31948 ft | 421 kts | 191° |
| 2026-05-04 03:47 | 38.38356 | -113.00962 | 31948 ft | 422 kts | 192° |
| 2026-05-04 03:47 | 38.32730 | -113.02741 | 31948 ft | 414 kts | 205° |
| 2026-05-04 03:48 | 38.27340 | -113.05366 | 31915 ft | 415 kts | 205° |
| 2026-05-04 03:48 | 38.21934 | -113.07980 | 31892 ft | 416 kts | 205° |
| 2026-05-04 03:49 | 38.16516 | -113.10567 | 31878 ft | 416 kts | 205° |
| 2026-05-04 03:49 | 38.11089 | -113.13133 | 31848 ft | 416 kts | 206° |
| 2026-05-04 03:50 | 38.05686 | -113.15691 | 31852 ft | 413 kts | 207° |
| 2026-05-04 03:50 | 38.00353 | -113.18212 | 31861 ft | 410 kts | 207° |
| 2026-05-04 03:51 | 37.95021 | -113.20729 | 31915 ft | 407 kts | 207° |
| 2026-05-04 03:51 | 37.89717 | -113.23228 | 31942 ft | 406 kts | 207° |
| 2026-05-04 03:52 | 37.84439 | -113.25713 | 31952 ft | 404 kts | 208° |
| 2026-05-04 03:52 | 37.79189 | -113.28177 | 31963 ft | 401 kts | 208° |
| 2026-05-04 03:53 | 37.73963 | -113.30626 | 31969 ft | 400 kts | 208° |
| 2026-05-04 03:53 | 37.68747 | -113.33069 | 31964 ft | 399 kts | 208° |
| 2026-05-04 03:54 | 37.63540 | -113.35504 | 31927 ft | 399 kts | 208° |
| 2026-05-04 03:54 | 37.58338 | -113.37934 | 31910 ft | 398 kts | 209° |
| 2026-05-04 03:55 | 37.53146 | -113.40356 | 31895 ft | 398 kts | 209° |
| 2026-05-04 03:55 | 37.47986 | -113.42755 | 31872 ft | 398 kts | 208° |
| 2026-05-04 03:56 | 37.42776 | -113.45174 | 31855 ft | 399 kts | 209° |
| 2026-05-04 03:56 | 37.37563 | -113.47595 | 31833 ft | 399 kts | 209° |
| 2026-05-04 03:57 | 37.32353 | -113.50015 | 31816 ft | 399 kts | 209° |
| 2026-05-04 03:57 | 37.27139 | -113.52428 | 31813 ft | 400 kts | 209° |
| 2026-05-04 03:58 | 37.19502 | -113.56442 | 31607 ft | 397 kts | 214° |
| 2026-05-04 03:58 | 37.17026 | -113.57932 | 31309 ft | 395 kts | 214° |
| 2026-05-04 03:58 | 37.14542 | -113.59422 | 30855 ft | 395 kts | 214° |
| 2026-05-04 03:59 | 37.12051 | -113.60901 | 30460 ft | 397 kts | 213° |
| 2026-05-04 03:59 | 37.09541 | -113.62377 | 30037 ft | 399 kts | 213° |
| 2026-05-04 03:59 | 37.07051 | -113.63827 | 29542 ft | 392 kts | 213° |
| 2026-05-04 03:59 | 37.04597 | -113.65251 | 29076 ft | 385 kts | 213° |
| 2026-05-04 04:00 | 37.02190 | -113.66647 | 28636 ft | 378 kts | 213° |
| 2026-05-04 04:00 | 36.99822 | -113.68022 | 28179 ft | 373 kts | 212° |
| 2026-05-04 04:00 | 36.97484 | -113.69378 | 27747 ft | 367 kts | 212° |
| 2026-05-04 04:00 | 36.95177 | -113.70710 | 27329 ft | 363 kts | 212° |
| 2026-05-04 04:01 | 36.92881 | -113.72054 | 26601 ft | 366 kts | 211° |
| 2026-05-04 04:01 | 36.90586 | -113.73398 | 26102 ft | 364 kts | 211° |
| 2026-05-04 04:01 | 36.88303 | -113.74730 | 25676 ft | 360 kts | 210° |
| 2026-05-04 04:01 | 36.86045 | -113.76041 | 25248 ft | 356 kts | 210° |
| 2026-05-04 04:02 | 36.83813 | -113.77342 | 24849 ft | 352 kts | 210° |
| 2026-05-04 04:02 | 36.81603 | -113.78633 | 24446 ft | 350 kts | 210° |
| 2026-05-04 04:02 | 36.79407 | -113.79913 | 24037 ft | 347 kts | 209° |
| 2026-05-04 04:02 | 36.77223 | -113.81185 | 23636 ft | 345 kts | 209° |
| 2026-05-04 04:03 | 36.75055 | -113.82446 | 23209 ft | 344 kts | 208° |
| 2026-05-04 04:03 | 36.72891 | -113.83705 | 22761 ft | 341 kts | 208° |
| 2026-05-04 04:03 | 36.70750 | -113.84949 | 22340 ft | 338 kts | 208° |
| 2026-05-04 04:03 | 36.68630 | -113.86178 | 21971 ft | 335 kts | 208° |
| 2026-05-04 04:04 | 36.66551 | -113.87385 | 21577 ft | 333 kts | 207° |
| 2026-05-04 04:04 | 36.64438 | -113.88611 | 21159 ft | 330 kts | 207° |
| 2026-05-04 04:04 | 36.62364 | -113.89811 | 20793 ft | 327 kts | 208° |
| 2026-05-04 04:04 | 36.60333 | -113.90991 | 20420 ft | 325 kts | 209° |
| 2026-05-04 04:05 | 36.58480 | -113.92544 | 19939 ft | 322 kts | 223° |
| 2026-05-04 04:05 | 36.56970 | -113.94715 | 19316 ft | 329 kts | 231° |
| 2026-05-04 04:05 | 36.55598 | -113.96962 | 19117 ft | 322 kts | 232° |
| 2026-05-04 04:05 | 36.54269 | -113.99159 | 18984 ft | 314 kts | 231° |
| 2026-05-04 04:06 | 36.53404 | -114.00584 | 18873 ft | 310 kts | 231° |
| 2026-05-04 04:06 | 36.52094 | -114.02728 | 18761 ft | 312 kts | 231° |
| 2026-05-04 04:06 | 36.50364 | -114.05539 | 18526 ft | 305 kts | 231° |
| 2026-05-04 04:06 | 36.49070 | -114.07632 | 17981 ft | 307 kts | 230° |
| 2026-05-04 04:07 | 36.47764 | -114.09735 | 17320 ft | 309 kts | 230° |
| 2026-05-04 04:07 | 36.46442 | -114.11862 | 16874 ft | 311 kts | 230° |
| 2026-05-04 04:07 | 36.45552 | -114.13293 | 16689 ft | 308 kts | 230° |
| 2026-05-04 04:07 | 36.44256 | -114.15377 | 16470 ft | 303 kts | 230° |
| 2026-05-04 04:08 | 36.42965 | -114.17451 | 16062 ft | 304 kts | 230° |
| 2026-05-04 04:08 | 36.41676 | -114.19519 | 15782 ft | 301 kts | 230° |
| 2026-05-04 04:08 | 36.40396 | -114.21569 | 15466 ft | 300 kts | 230° |
| 2026-05-04 04:08 | 36.39112 | -114.23621 | 15092 ft | 301 kts | 230° |
| 2026-05-04 04:09 | 36.37828 | -114.25643 | 14847 ft | 297 kts | 230° |
| 2026-05-04 04:09 | 36.36544 | -114.27655 | 14478 ft | 297 kts | 230° |
| 2026-05-04 04:09 | 36.35262 | -114.29663 | 14176 ft | 296 kts | 230° |
| 2026-05-04 04:09 | 36.33990 | -114.31655 | 13938 ft | 292 kts | 230° |
| 2026-05-04 04:10 | 36.32724 | -114.33635 | 13582 ft | 294 kts | 230° |
| 2026-05-04 04:10 | 36.31456 | -114.35623 | 13244 ft | 294 kts | 230° |
| 2026-05-04 04:10 | 36.30187 | -114.37612 | 12857 ft | 294 kts | 229° |
| 2026-05-04 04:10 | 36.28915 | -114.39603 | 12516 ft | 294 kts | 229° |
| 2026-05-04 04:11 | 36.27660 | -114.41570 | 12330 ft | 288 kts | 229° |
| 2026-05-04 04:11 | 36.26420 | -114.43504 | 12060 ft | 287 kts | 228° |
| 2026-05-04 04:11 | 36.25197 | -114.45409 | 11776 ft | 285 kts | 228° |
| 2026-05-04 04:11 | 36.23945 | -114.47339 | 11545 ft | 281 kts | 228° |
| 2026-05-04 04:12 | 36.22741 | -114.49183 | 11245 ft | 280 kts | 228° |
| 2026-05-04 04:12 | 36.21511 | -114.51066 | 10935 ft | 280 kts | 229° |
| 2026-05-04 04:12 | 36.20288 | -114.52938 | 10642 ft | 280 kts | 229° |
| 2026-05-04 04:12 | 36.19066 | -114.54810 | 10306 ft | 281 kts | 229° |
| 2026-05-04 04:13 | 36.17841 | -114.56685 | 10091 ft | 278 kts | 230° |
| 2026-05-04 04:13 | 36.16636 | -114.58529 | 9916 ft | 273 kts | 229° |
| 2026-05-04 04:13 | 36.15436 | -114.60362 | 9608 ft | 274 kts | 229° |
| 2026-05-04 04:13 | 36.14248 | -114.62180 | 9477 ft | 267 kts | 229° |
| 2026-05-04 04:14 | 36.13097 | -114.63934 | 9402 ft | 257 kts | 227° |
| 2026-05-04 04:14 | 36.12005 | -114.65604 | 9276 ft | 242 kts | 229° |
| 2026-05-04 04:14 | 36.10978 | -114.67175 | 9183 ft | 226 kts | 228° |
| 2026-05-04 04:14 | 36.10012 | -114.68645 | 8896 ft | 217 kts | 228° |
| 2026-05-04 04:15 | 36.09061 | -114.70096 | 8399 ft | 216 kts | 228° |
| 2026-05-04 04:15 | 36.08122 | -114.71527 | 7924 ft | 213 kts | 229° |
| 2026-05-04 04:15 | 36.07439 | -114.73147 | 7314 ft | 223 kts | 257° |
| 2026-05-04 04:15 | 36.07455 | -114.75089 | 6816 ft | 225 kts | 266° |
| 2026-05-04 04:16 | 36.07461 | -114.76965 | 6619 ft | 209 kts | 263° |
| 2026-05-04 04:16 | 36.07446 | -114.78706 | 6284 ft | 203 kts | 263° |
| 2026-05-04 04:16 | 36.07428 | -114.80509 | 5626 ft | 216 kts | 263° |
| 2026-05-04 04:16 | 36.07421 | -114.82343 | 5435 ft | 212 kts | 264° |
| 2026-05-04 04:17 | 36.07416 | -114.84170 | 5311 ft | 214 kts | 263° |
| 2026-05-04 04:17 | 36.07411 | -114.85981 | 5143 ft | 205 kts | 264° |
| 2026-05-04 04:17 | 36.07407 | -114.87703 | 5028 ft | 200 kts | 264° |
| 2026-05-04 04:17 | 36.07400 | -114.89445 | 5002 ft | 203 kts | 263° |
| 2026-05-04 04:18 | 36.07397 | -114.91180 | 5008 ft | 200 kts | 263° |
| 2026-05-04 04:18 | 36.07393 | -114.92872 | 4954 ft | 190 kts | 263° |
| 2026-05-04 04:18 | 36.07393 | -114.94444 | 4896 ft | 177 kts | 263° |
| 2026-05-04 04:18 | 36.07390 | -114.95928 | 4690 ft | 167 kts | 262° |
| 2026-05-04 04:19 | 36.07388 | -114.97272 | 4547 ft | 149 kts | 262° |
| 2026-05-04 04:19 | 36.07386 | -114.98499 | 4382 ft | 135 kts | 261° |
| 2026-05-04 04:19 | 36.07381 | -114.99662 | 4182 ft | 137 kts | 262° |
| 2026-05-04 04:19 | 36.07378 | -115.00842 | 4010 ft | 138 kts | 263° |
| 2026-05-04 04:20 | 36.07376 | -115.01981 | 3836 ft | 128 kts | 268° |
| 2026-05-04 04:20 | 36.07375 | -115.03070 | 3687 ft | 127 kts | 268° |
| 2026-05-04 04:20 | 36.07373 | -115.04174 | 3521 ft | 129 kts | 268° |
| 2026-05-04 04:20 | 36.07372 | -115.05275 | 3363 ft | 128 kts | 268° |
| 2026-05-04 04:21 | 36.07371 | -115.06380 | 3213 ft | 129 kts | 266° |
| 2026-05-04 04:21 | 36.07369 | -115.07514 | 3071 ft | 138 kts | 266° |
| 2026-05-04 04:21 | 36.07369 | -115.08703 | 2868 ft | 136 kts | 267° |
| 2026-05-04 04:21 | 36.07368 | -115.09868 | 2716 ft | 137 kts | 266° |
| 2026-05-04 04:22 | 36.07368 | -115.11054 | 2510 ft | 136 kts | 269° |
| 2026-05-04 04:22 | 36.07372 | -115.12219 | 2325 ft | 137 kts | 268° |
| 2026-05-04 04:22 | 36.07368 | -115.13389 | 2193 ft | 129 kts | 268° |
| 2026-05-04 04:22 | 36.07365 | -115.14360 | 2191 ft | 92 kts | 270° |
| 2026-05-04 04:23 | 36.07366 | -115.14940 | 2188 ft | 31 kts | 270° |
| 2026-05-04 04:23 | 36.07372 | -115.15196 | 2186 ft | 29 kts | 276° |
| 2026-05-04 04:23 | 36.07411 | -115.15371 | 2190 ft | 15 kts | 292° |
| 2026-05-04 04:23 | 36.07459 | -115.15486 | 2190 ft | 15 kts | 299° |
| 2026-05-04 04:24 | 36.07514 | -115.15588 | 2191 ft | 14 kts | 310° |
| 2026-05-04 04:24 | 36.07581 | -115.15674 | 2189 ft | 14 kts | 315° |
| 2026-05-04 04:24 | 36.07645 | -115.15755 | 2190 ft | 13 kts | 314° |
| 2026-05-04 04:24 | 36.07718 | -115.15816 | 2191 ft | 13 kts | 344° |
| 2026-05-04 04:25 | 36.07797 | -115.15792 | 2188 ft | 12 kts | 53° |
| 2026-05-04 04:25 | 36.07806 | -115.15687 | 2187 ft | 13 kts | 89° |
| 2026-05-04 04:25 | 36.07806 | -115.15579 | 2187 ft | 12 kts | 90° |
| 2026-05-04 04:25 | 36.07806 | -115.15474 | 2188 ft | 12 kts | 90° |
| 2026-05-04 04:26 | 36.07808 | -115.15372 | 2188 ft | 12 kts | 74° |
| 2026-05-04 04:26 | 36.07874 | -115.15335 | 2191 ft | 12 kts | 344° |
| 2026-05-04 04:26 | 36.07950 | -115.15375 | 2187 ft | 12 kts | 334° |
| 2026-05-04 04:26 | 36.08028 | -115.15421 | 2188 ft | 13 kts | 335° |
| 2026-05-04 04:27 | 36.08059 | -115.15438 | 2190 ft | 0 kts | 335° |
| 2026-05-04 04:27 | 36.08064 | -115.15441 | 2188 ft | 1 kts | 335° |
| 2026-05-04 04:27 | 36.08073 | -115.15447 | 2188 ft | 2 kts | 334° |
| 2026-05-04 04:27 | 36.08087 | -115.15448 | 2187 ft | 2 kts | 358° |
| 2026-05-04 04:28 | 36.08106 | -115.15445 | 2188 ft | 3 kts | 9° |
| 2026-05-04 04:28 | 36.08133 | -115.15444 | 2189 ft | 5 kts | 349° |
| 2026-05-04 04:28 | 36.08159 | -115.15474 | 2187 ft | 6 kts | 301° |
| 2026-05-04 04:28 | 36.08193 | -115.15515 | 2187 ft | 8 kts | 328° |
| 2026-05-04 04:29 | 36.08253 | -115.15551 | 2190 ft | 11 kts | 335° |
| 2026-05-04 04:29 | 36.08329 | -115.15555 | 2187 ft | 12 kts | 44° |
| 2026-05-04 04:29 | 36.08301 | -115.15479 | 2189 ft | 12 kts | 153° |
| 2026-05-04 04:29 | 36.08228 | -115.15436 | 2190 ft | 11 kts | 155° |
| 2026-05-04 04:30 | 36.08158 | -115.15394 | 2187 ft | 11 kts | 150° |
| 2026-05-04 04:30 | 36.08112 | -115.15322 | 2191 ft | 11 kts | 105° |
| 2026-05-04 04:30 | 36.08095 | -115.15234 | 2188 ft | 11 kts | 102° |
| 2026-05-04 04:30 | 36.08097 | -115.15147 | 2187 ft | 10 kts | 65° |
| 2026-05-04 04:31 | 36.08138 | -115.15076 | 2189 ft | 10 kts | 47° |
| 2026-05-04 04:31 | 36.08175 | -115.15042 | 2187 ft | 0 kts | 16° |
| 2026-05-04 04:32 | 36.08176 | -115.15042 | 2187 ft | 2 kts | 15° |
| 2026-05-04 04:32 | 36.08215 | -115.15052 | 2188 ft | 2 kts | 336° |
| 2026-05-04 04:32 | 36.08229 | -115.15060 | 2187 ft | 1 kts | 334° |
| 2026-05-04 04:33 | 36.08230 | -115.15060 | 2187 ft | 0 kts | 334° |